Time;durP1;ratioP1;P1;durP2;ratioP2;P2;SDS_P1;SDS_P2;PMS_P1;PMS_P2;Temp;Humidity;BMP_temperature;BMP_pressure;BME280_temperature;BME280_humidity;BME280_pressure;Samples;Min_cycle;Max_cycle;Signal;HPM_P1;HPM_P2
2021/08/07 00:00:51;;;;;;;3.70;1.20;;;;;;;14.85;100.00;99065.75;5056375;28;20053;-67
2021/08/07 00:03:19;;;;;;;2.80;1.05;;;;;;;14.88;100.00;99073.50;5056259;28;20052;-67
2021/08/07 00:05:45;;;;;;;1.88;1.23;;;;;;;14.88;100.00;99081.56;5055920;28;20460;-67
2021/08/07 00:08:12;;;;;;;5.13;1.20;;;;;;;14.88;100.00;99086.09;5055959;28;20090;-68
2021/08/07 00:10:39;;;;;;;4.70;1.27;;;;;;;14.85;100.00;99081.88;5038596;28;20065;-67
2021/08/07 00:13:05;;;;;;;2.08;1.10;;;;;;;14.83;100.00;99080.31;5056013;28;20071;-67
2021/08/07 00:15:32;;;;;;;3.33;0.80;;;;;;;14.83;100.00;99075.81;5056016;28;20052;-67
2021/08/07 00:17:59;;;;;;;3.80;1.20;;;;;;;14.83;100.00;99080.31;5038366;28;20045;-68
2021/08/07 00:20:26;;;;;;;3.97;1.10;;;;;;;14.85;100.00;99071.13;5037313;28;20084;-67
2021/08/07 00:22:52;;;;;;;4.50;1.70;;;;;;;14.78;100.00;99057.44;5035566;28;20061;-68
2021/08/07 00:25:19;;;;;;;4.90;1.67;;;;;;;14.84;100.00;99057.84;5035924;28;20053;-67
2021/08/07 00:27:46;;;;;;;3.28;1.67;;;;;;;14.87;100.00;99065.63;5018625;28;20080;-68
2021/08/07 00:30:13;;;;;;;5.30;1.30;;;;;;;14.89;100.00;99071.69;5035714;28;20063;-67
2021/08/07 00:32:40;;;;;;;5.68;2.70;;;;;;;14.89;100.00;99067.16;5035942;28;20053;-68
2021/08/07 00:35:08;;;;;;;1.30;1.17;;;;;;;14.92;100.00;99069.53;5035703;28;20046;-68
2021/08/07 00:37:35;;;;;;;1.25;1.10;;;;;;;14.75;100.00;99044.31;5035425;28;20108;-68
2021/08/07 00:40:05;;;;;;;4.88;1.52;;;;;;;14.96;100.00;99064.72;5035654;28;20081;-68
2021/08/07 00:42:31;;;;;;;9.93;2.15;;;;;;;14.92;100.00;99064.16;5035481;28;20079;-67
2021/08/07 00:44:58;;;;;;;8.27;1.27;;;;;;;14.89;100.00;99058.25;5035597;28;20324;-68
2021/08/07 00:47:25;;;;;;;2.88;1.30;;;;;;;14.95;100.00;99063.03;5035669;28;20099;-68
2021/08/07 00:49:51;;;;;;;3.60;1.40;;;;;;;14.96;100.00;99062.03;5035217;28;20447;-68
2021/08/07 00:52:18;;;;;;;2.17;1.42;;;;;;;14.94;100.00;99061.34;5035214;28;20053;-67
2021/08/07 00:54:45;;;;;;;5.85;1.13;;;;;;;14.89;100.00;99048.34;5035463;28;20049;-67
2021/08/07 00:57:12;;;;;;;4.32;1.38;;;;;;;14.88;100.00;99048.50;5035438;28;20115;-68
2021/08/07 00:59:38;;;;;;;5.38;1.50;;;;;;;14.80;100.00;99050.09;5035426;28;20049;-67
2021/08/07 01:02:11;;;;;;;2.42;1.52;;;;;;;14.75;100.00;99055.06;5017817;28;20336;-68
2021/08/07 01:04:50;;;;;;;1.30;1.20;;;;;;;14.59;100.00;99044.06;5035081;28;20390;-68
2021/08/07 01:07:44;;;;;;;4.63;1.52;;;;;;;14.61;100.00;99050.97;5035430;28;20049;-68
2021/08/07 01:10:18;;;;;;;1.70;1.30;;;;;;;14.60;100.00;99053.81;5034926;28;20049;-67
2021/08/07 01:13:08;;;;;;;3.05;1.70;;;;;;;14.55;100.00;99053.41;5042362;28;20389;-68
2021/08/07 01:15:40;;;;;;;2.42;1.48;;;;;;;14.50;100.00;99053.84;5054897;28;20045;-68
2021/08/07 01:18:12;;;;;;;6.93;1.63;;;;;;;14.45;100.00;99045.38;5055230;28;20061;-68
2021/08/07 01:20:44;;;;;;;2.70;1.60;;;;;;;14.41;100.00;99050.19;5051924;28;21398;-67
2021/08/07 01:23:48;;;;;;;2.28;1.50;;;;;;;14.35;100.00;99045.41;5035293;28;20050;-68
2021/08/07 01:26:18;;;;;;;4.82;2.60;;;;;;;14.28;100.00;99038.94;5035198;28;20054;-68
2021/08/07 01:28:46;;;;;;;6.60;1.70;;;;;;;14.26;100.00;99039.94;5035221;28;20111;-67
2021/08/07 01:31:14;;;;;;;3.85;1.60;;;;;;;14.22;100.00;99035.00;5034841;28;20056;-67
2021/08/07 01:33:43;;;;;;;5.03;1.73;;;;;;;14.26;100.00;99041.75;5034896;28;20435;-67
2021/08/07 01:36:10;;;;;;;5.95;1.88;;;;;;;14.28;100.00;99039.78;5034731;28;20089;-67
2021/08/07 01:38:37;;;;;;;5.97;1.80;;;;;;;14.27;100.00;99035.41;5034937;28;20107;-67
2021/08/07 01:41:13;;;;;;;5.63;1.73;;;;;;;14.23;100.00;99032.16;5034900;28;20057;-68
2021/08/07 01:43:39;;;;;;;4.80;1.60;;;;;;;14.28;100.00;99029.06;5017703;28;20095;-67
2021/08/07 01:46:06;;;;;;;6.13;1.73;;;;;;;14.27;100.00;99027.34;5035067;28;20449;-67
2021/08/07 01:48:43;;;;;;;4.43;1.67;;;;;;;14.29;100.00;99020.00;5036325;28;20128;-67
2021/08/07 01:51:15;;;;;;;2.70;1.70;;;;;;;14.21;100.00;99007.31;5038470;28;20489;-67
2021/08/07 01:53:45;;;;;;;7.53;1.60;;;;;;;14.26;100.00;99021.16;5038653;28;20045;-67
2021/08/07 01:56:20;;;;;;;6.60;1.67;;;;;;;14.21;100.00;99017.19;5038450;28;20053;-67
2021/08/07 01:58:52;;;;;;;6.25;1.80;;;;;;;14.21;100.00;99007.31;5038775;28;20045;-67
2021/08/07 02:01:24;;;;;;;4.95;1.77;;;;;;;14.20;100.00;99013.69;5038634;28;20054;-67
2021/08/07 02:03:57;;;;;;;5.57;1.63;;;;;;;14.13;100.00;98999.97;5038448;28;20055;-67
2021/08/07 02:06:25;;;;;;;5.40;1.90;;;;;;;14.10;100.00;99000.28;5021216;28;20049;-67
2021/08/07 02:08:52;;;;;;;2.58;1.63;;;;;;;14.12;100.00;99014.41;5020854;28;20053;-69
2021/08/07 02:11:20;;;;;;;5.00;1.70;;;;;;;14.10;100.00;99004.78;5038427;28;20092;-67
2021/08/07 02:13:47;;;;;;;6.43;2.17;;;;;;;14.12;100.00;99010.88;5053996;28;20052;-66
2021/08/07 02:16:16;;;;;;;4.05;1.90;;;;;;;14.08;100.00;99009.47;5058011;28;20500;-67
2021/08/07 02:18:45;;;;;;;3.17;1.70;;;;;;;14.09;100.00;99003.09;5040431;28;20052;-67
2021/08/07 02:21:12;;;;;;;4.57;1.50;;;;;;;14.06;100.00;98998.03;5050457;28;20057;-66
2021/08/07 02:23:39;;;;;;;6.85;1.60;;;;;;;14.07;100.00;98997.06;5038238;28;20111;-67
2021/08/07 02:26:09;;;;;;;4.95;1.30;;;;;;;14.06;100.00;98998.88;5020755;28;20107;-68
2021/08/07 02:28:36;;;;;;;3.20;1.65;;;;;;;14.07;100.00;98994.38;5020718;28;20049;-67
2021/08/07 02:31:04;;;;;;;5.22;1.60;;;;;;;14.03;100.00;98998.31;5038109;28;20184;-66
2021/08/07 02:33:31;;;;;;;2.90;1.30;;;;;;;14.03;100.00;98984.91;5037959;28;20362;-67
2021/08/07 02:36:00;;;;;;;4.30;1.52;;;;;;;13.99;100.00;98981.66;5051487;28;20052;-66
2021/08/07 02:38:28;;;;;;;4.80;1.60;;;;;;;14.02;100.00;98986.75;5057550;28;20087;-67
2021/08/07 02:40:55;;;;;;;2.38;1.27;;;;;;;13.97;100.00;98989.88;5040280;28;20056;-67
2021/08/07 02:43:23;;;;;;;6.22;1.60;;;;;;;13.87;100.00;98978.31;5057800;28;20118;-67
2021/08/07 02:45:50;;;;;;;3.45;1.30;;;;;;;13.87;100.00;98977.44;5057761;28;20053;-67
2021/08/07 02:48:19;;;;;;;4.20;1.63;;;;;;;13.90;100.00;98980.69;5057608;28;20107;-66
2021/08/07 02:50:46;;;;;;;7.28;1.67;;;;;;;13.96;100.00;98977.44;5057364;28;20053;-67
2021/08/07 02:53:15;;;;;;;5.43;1.33;;;;;;;13.89;100.00;98975.50;5040044;28;20094;-67
2021/08/07 02:55:44;;;;;;;3.20;1.50;;;;;;;13.84;100.00;98957.16;5057208;28;20053;-67
2021/08/07 02:58:11;;;;;;;3.85;1.50;;;;;;;13.84;100.00;98962.53;5057491;28;20102;-66
2021/08/07 03:00:38;;;;;;;3.28;1.30;;;;;;;13.89;100.00;98964.75;5056918;28;20056;-67
2021/08/07 03:03:06;;;;;;;8.98;1.70;;;;;;;13.88;100.00;98960.41;5057243;28;20136;-67
2021/08/07 03:05:33;;;;;;;3.33;1.60;;;;;;;13.86;100.00;98963.22;5057077;28;20079;-68
2021/08/07 03:07:59;;;;;;;3.17;1.40;;;;;;;13.84;100.00;98949.13;5057304;28;20103;-67
2021/08/07 03:10:26;;;;;;;5.00;1.63;;;;;;;13.89;100.00;98965.59;5039670;28;20057;-67
2021/08/07 03:12:53;;;;;;;2.67;1.80;;;;;;;13.90;100.00;98948.50;5039448;28;20080;-67
2021/08/07 03:15:22;;;;;;;6.05;1.40;;;;;;;13.94;100.00;98957.97;5057272;28;20057;-68
2021/08/07 03:17:49;;;;;;;8.90;1.77;;;;;;;13.94;100.00;98957.97;5056710;28;20056;-67
2021/08/07 03:20:17;;;;;;;8.25;1.50;;;;;;;13.95;100.00;98956.97;5039681;28;20080;-67
2021/08/07 03:22:43;;;;;;;5.35;1.20;;;;;;;14.03;100.00;98956.25;5036729;28;20111;-67
2021/08/07 03:25:11;;;;;;;3.28;1.25;;;;;;;14.03;100.00;98961.63;5037177;28;20077;-68
2021/08/07 03:27:38;;;;;;;3.58;1.52;;;;;;;13.98;100.00;98954.00;5019348;28;20049;-67
2021/08/07 03:30:06;;;;;;;3.35;1.30;;;;;;;13.96;100.00;98955.97;5019345;28;20057;-67
2021/08/07 03:32:32;;;;;;;3.85;1.33;;;;;;;14.04;100.00;98957.09;5019230;28;20053;-67
2021/08/07 03:34:59;;;;;;;5.28;1.45;;;;;;;14.08;100.00;98956.66;5036613;28;20581;-67
2021/08/07 03:37:25;;;;;;;5.47;1.50;;;;;;;14.05;100.00;98951.56;5036771;28;20045;-68
2021/08/07 03:39:53;;;;;;;4.70;1.80;;;;;;;14.12;100.00;98951.84;5036890;28;20151;-68
2021/08/07 03:42:19;;;;;;;4.93;1.33;;;;;;;14.16;100.00;98944.34;5036457;28;20045;-67
2021/08/07 03:44:46;;;;;;;6.68;1.10;;;;;;;14.18;100.00;98945.03;5036411;28;20111;-67
2021/08/07 03:47:14;;;;;;;3.55;1.40;;;;;;;14.17;100.00;98951.41;5036295;28;20054;-67
2021/08/07 03:49:41;;;;;;;5.18;1.40;;;;;;;14.17;100.00;98941.50;5036382;28;20045;-68
2021/08/07 03:52:08;;;;;;;2.58;1.10;;;;;;;14.13;100.00;98937.44;5036366;28;20053;-67
2021/08/07 03:54:35;;;;;;;5.75;1.45;;;;;;;14.16;100.00;98942.50;5036228;28;20103;-67
2021/08/07 03:57:02;;;;;;;6.10;1.40;;;;;;;14.11;100.00;98937.56;5036252;28;20058;-68
2021/08/07 03:59:28;;;;;;;8.18;1.77;;;;;;;14.13;100.00;98940.13;5019075;28;20053;-68
2021/08/07 04:01:55;;;;;;;6.32;1.35;;;;;;;14.15;100.00;98935.44;5035973;28;20053;-67
2021/08/07 04:04:22;;;;;;;4.88;1.13;;;;;;;14.16;100.00;98933.63;5036125;28;20050;-67
2021/08/07 04:06:48;;;;;;;8.00;1.45;;;;;;;14.16;100.00;98931.75;5036327;28;20057;-68
2021/08/07 04:09:15;;;;;;;6.78;1.50;;;;;;;14.16;100.00;98930.94;5035988;28;20427;-68
2021/08/07 04:11:42;;;;;;;12.57;2.30;;;;;;;14.13;100.00;98932.06;5035178;28;20513;-68
2021/08/07 04:14:08;;;;;;;8.60;1.35;;;;;;;14.15;100.00;98937.31;5054487;28;20057;-68
2021/08/07 04:16:35;;;;;;;6.63;1.52;;;;;;;14.08;100.00;98935.22;5055698;28;20095;-68
2021/08/07 04:19:02;;;;;;;4.85;1.38;;;;;;;14.16;100.00;98942.50;5038208;28;20453;-68
2021/08/07 04:21:29;;;;;;;5.20;1.52;;;;;;;14.22;100.00;98943.78;5045827;28;20462;-67
2021/08/07 04:23:56;;;;;;;5.88;1.48;;;;;;;14.19;100.00;98938.69;5035858;28;20049;-67
2021/08/07 04:26:22;;;;;;;4.20;1.73;;;;;;;14.21;100.00;98932.19;5035834;28;20053;-68
2021/08/07 04:28:49;;;;;;;3.47;1.50;;;;;;;14.22;100.00;98933.03;5035576;28;20049;-68
2021/08/07 04:31:16;;;;;;;5.05;1.50;;;;;;;14.26;100.00;98939.78;5035824;28;20114;-67
2021/08/07 04:33:42;;;;;;;6.70;1.30;;;;;;;14.28;100.00;98939.63;5035497;28;20439;-67
2021/08/07 04:36:09;;;;;;;7.90;1.50;;;;;;;14.33;100.00;98940.03;5018117;28;20056;-68
2021/08/07 04:38:36;;;;;;;5.50;1.38;;;;;;;14.33;100.00;98935.50;5035656;28;20045;-67
2021/08/07 04:41:02;;;;;;;3.30;1.27;;;;;;;14.30;100.00;98932.28;5018009;28;20593;-67
2021/08/07 04:43:31;;;;;;;5.18;1.33;;;;;;;14.40;100.00;98941.16;5035574;28;20049;-67
2021/08/07 04:45:58;;;;;;;5.32;1.42;;;;;;;14.32;100.00;98936.50;5018665;28;20060;-66
2021/08/07 04:48:24;;;;;;;7.07;1.65;;;;;;;14.42;100.00;98943.69;5035493;28;20053;-67
2021/08/07 04:50:51;;;;;;;3.42;1.38;;;;;;;14.40;100.00;98944.66;5035587;28;20057;-67
2021/08/07 04:53:18;;;;;;;3.80;1.38;;;;;;;14.41;100.00;98948.19;5017762;28;20451;-67
2021/08/07 04:55:44;;;;;;;8.18;1.50;;;;;;;14.43;100.00;98950.75;5035297;28;20431;-67
2021/08/07 04:58:14;;;;;;;3.00;1.30;;;;;;;14.53;100.00;98940.78;5017704;28;20502;-67
2021/08/07 05:00:41;;;;;;;4.18;1.25;;;;;;;14.51;100.00;98935.56;5022297;28;20056;-66
2021/08/07 05:03:08;;;;;;;2.47;1.10;;;;;;;14.55;100.00;98941.50;5037175;28;20453;-66
2021/08/07 05:05:35;;;;;;;6.95;1.40;;;;;;;14.56;100.00;98936.97;5035090;28;20060;-67
2021/08/07 05:08:02;;;;;;;6.97;1.40;;;;;;;14.63;100.00;98946.09;5017787;28;20099;-67
2021/08/07 05:10:28;;;;;;;5.18;2.55;;;;;;;14.66;100.00;98945.81;5042245;28;20061;-67
2021/08/07 05:12:55;;;;;;;6.00;1.42;;;;;;;14.74;100.00;98942.41;5043776;28;20053;-67
2021/08/07 05:15:22;;;;;;;4.15;1.27;;;;;;;14.77;100.00;98942.09;5055279;28;20049;-67
2021/08/07 05:17:49;;;;;;;7.35;1.35;;;;;;;14.86;100.00;98945.72;5054879;28;20049;-67
2021/08/07 05:20:16;;;;;;;5.88;1.40;;;;;;;14.80;100.00;98942.66;5036841;28;20115;-66
2021/08/07 05:22:43;;;;;;;4.38;1.20;;;;;;;14.85;100.00;98942.19;5035535;28;20065;-66
2021/08/07 05:25:11;;;;;;;6.28;1.40;;;;;;;14.80;100.00;98937.28;5038914;28;20135;-66
2021/08/07 05:27:37;;;;;;;6.75;1.75;;;;;;;14.83;100.00;98933.44;5038869;28;20427;-67
2021/08/07 05:30:05;;;;;;;4.53;1.58;;;;;;;14.84;100.00;98935.13;5038972;28;20053;-69
2021/08/07 05:32:33;;;;;;;3.97;1.20;;;;;;;14.82;100.00;98920.16;5039119;28;20103;-67
2021/08/07 05:34:59;;;;;;;5.15;1.40;;;;;;;14.90;100.00;98928.28;5032929;28;20112;-68
2021/08/07 05:37:26;;;;;;;4.40;1.33;;;;;;;14.97;100.00;98925.84;5038050;28;20049;-66
2021/08/07 05:39:53;;;;;;;7.47;1.50;;;;;;;15.01;100.00;98928.09;5021202;28;20103;-66
2021/08/07 05:42:19;;;;;;;3.97;1.30;;;;;;;15.12;100.00;98918.09;5038804;28;20049;-67
2021/08/07 05:44:46;;;;;;;7.80;1.40;;;;;;;15.14;100.00;98918.81;5038770;28;20111;-67
2021/08/07 05:47:13;;;;;;;7.65;1.25;;;;;;;15.09;100.00;98919.22;5037904;28;20061;-68
2021/08/07 05:49:39;;;;;;;3.97;1.30;;;;;;;15.09;100.00;98908.50;5037454;28;20103;-67
2021/08/07 05:52:06;;;;;;;4.78;1.33;;;;;;;15.07;100.00;98915.88;5038543;28;20053;-67
2021/08/07 05:54:33;;;;;;;8.55;1.88;;;;;;;15.18;100.00;98925.53;5038580;28;20049;-67
2021/08/07 05:56:59;;;;;;;4.15;1.58;;;;;;;15.16;100.00;98919.47;5038694;28;20131;-68
2021/08/07 05:59:26;;;;;;;4.80;1.42;;;;;;;15.22;100.00;98924.25;5038535;28;20045;-68
2021/08/07 06:01:53;;;;;;;6.85;1.58;;;;;;;15.22;100.00;98916.19;5037334;28;20443;-69
2021/08/07 06:04:19;;;;;;;7.30;2.38;;;;;;;15.30;100.00;98921.63;5019302;28;20133;-68
2021/08/07 06:06:46;;;;;;;7.78;1.60;;;;;;;15.36;100.00;98911.25;5023010;28;20049;-68
2021/08/07 06:09:13;;;;;;;7.22;1.55;;;;;;;15.39;100.00;98910.94;5037010;28;20060;-68
2021/08/07 06:11:40;;;;;;;7.85;1.50;;;;;;;15.37;100.00;98915.63;5024094;28;20127;-67
2021/08/07 06:14:06;;;;;;;4.10;1.30;;;;;;;15.41;100.00;98911.63;5017341;28;20127;-68
2021/08/07 06:16:33;;;;;;;7.55;1.70;;;;;;;15.44;100.00;98914.00;5018353;28;20056;-67
2021/08/07 06:19:00;;;;;;;5.78;1.45;;;;;;;15.54;100.00;98914.75;5018489;28;20506;-68
2021/08/07 06:21:27;;;;;;;5.25;1.95;;;;;;;15.53;100.00;98904.16;5034430;28;20061;-67
2021/08/07 06:23:55;;;;;;;5.60;1.30;;;;;;;15.56;100.00;98917.28;5057905;28;20049;-68
2021/08/07 06:26:22;;;;;;;5.13;2.13;;;;;;;15.63;100.00;98923.72;5040745;28;20053;-66
2021/08/07 06:28:48;;;;;;;5.55;1.40;;;;;;;15.73;100.00;98920.91;5057892;28;20064;-68
2021/08/07 06:31:15;;;;;;;3.00;1.33;;;;;;;15.68;100.00;98920.56;5057886;28;20095;-68
2021/08/07 06:33:42;;;;;;;5.55;1.63;;;;;;;15.67;100.00;98910.78;5056820;28;20056;-68
2021/08/07 06:36:09;;;;;;;7.20;1.65;;;;;;;15.83;100.00;98916.28;5057883;28;20114;-68
2021/08/07 06:38:36;;;;;;;8.98;1.48;;;;;;;15.86;100.00;98915.13;5056716;28;20614;-69
2021/08/07 06:41:03;;;;;;;3.90;1.42;;;;;;;15.88;100.00;98913.13;5055920;28;20051;-71
2021/08/07 06:43:29;;;;;;;6.05;1.77;;;;;;;15.94;100.00;98919.72;5055517;28;20056;-76
2021/08/07 06:45:56;;;;;;;5.63;1.40;;;;;;;15.90;100.00;98900.34;5055893;28;20118;-73
2021/08/07 06:48:23;;;;;;;7.40;1.20;;;;;;;15.97;100.00;98911.38;5055806;28;20051;-72
2021/08/07 06:50:50;;;;;;;7.70;1.90;;;;;;;16.12;98.26;98914.31;5054829;28;20118;-73
2021/08/07 06:53:17;;;;;;;6.60;1.58;;;;;;;16.08;99.70;98913.75;5055830;28;20076;-76
2021/08/07 06:55:44;;;;;;;5.30;1.45;;;;;;;16.18;97.61;98910.13;5056154;28;20045;-74
2021/08/07 06:58:10;;;;;;;6.05;1.55;;;;;;;16.18;96.71;98915.50;5055120;28;20045;-70
2021/08/07 07:00:39;;;;;;;6.57;1.60;;;;;;;16.17;99.14;98922.72;5038700;28;20451;-70
2021/08/07 07:03:07;;;;;;;9.88;1.90;;;;;;;16.27;97.26;98925.28;5056756;28;20351;-74
2021/08/07 07:05:34;;;;;;;6.38;1.40;;;;;;;16.33;96.36;98919.28;5067510;28;20049;-70
2021/08/07 07:08:01;;;;;;;7.32;1.40;;;;;;;16.36;95.39;98915.41;5074551;28;20380;-67
2021/08/07 07:10:29;;;;;;;5.28;1.52;;;;;;;16.40;96.64;98911.41;5061001;28;20053;-76
2021/08/07 07:12:56;;;;;;;6.70;1.55;;;;;;;16.32;97.94;98912.19;5056781;28;20049;-69
2021/08/07 07:15:23;;;;;;;6.22;1.40;;;;;;;16.46;95.36;98915.28;5055090;28;20090;-68
2021/08/07 07:17:50;;;;;;;5.63;1.38;;;;;;;16.50;96.08;98916.66;5056395;28;20446;-68
2021/08/07 07:20:20;;;;;;;5.35;1.75;;;;;;;16.48;97.46;98915.94;5056049;28;20385;-68
2021/08/07 07:22:48;;;;;;;6.28;1.40;;;;;;;16.57;96.34;98912.31;5054764;28;20107;-68
2021/08/07 07:25:17;;;;;;;5.10;1.27;;;;;;;16.59;94.16;98921.06;5055706;28;20344;-69
2021/08/07 07:27:44;;;;;;;9.90;1.92;;;;;;;16.56;96.76;98924.06;5048661;28;20453;-69
2021/08/07 07:30:12;;;;;;;6.22;1.52;;;;;;;16.63;93.49;98924.25;5054904;28;20049;-74
2021/08/07 07:32:39;;;;;;;6.53;1.70;;;;;;;16.67;94.17;98912.16;5054762;28;20052;-73
2021/08/07 07:35:07;;;;;;;6.45;1.15;;;;;;;16.67;94.62;98915.69;5039193;28;20094;-71
2021/08/07 07:37:34;;;;;;;7.47;1.38;;;;;;;16.67;95.20;98922.94;5052751;28;20094;-69
2021/08/07 07:40:01;;;;;;;6.20;1.90;;;;;;;16.70;94.96;98904.59;5055352;28;20048;-71
2021/08/07 07:42:28;;;;;;;3.92;1.23;;;;;;;16.85;93.84;98914.72;5044521;28;20049;-73
2021/08/07 07:44:54;;;;;;;6.32;1.90;;;;;;;16.91;92.95;98921.28;5036650;28;20053;-71
2021/08/07 07:47:21;;;;;;;6.15;1.42;;;;;;;16.88;93.71;98919.78;5037100;28;20052;-73
2021/08/07 07:49:48;;;;;;;3.63;1.23;;;;;;;16.89;95.60;98921.44;5055216;28;20049;-71
2021/08/07 07:52:14;;;;;;;5.00;1.20;;;;;;;16.95;95.79;98915.41;5037777;28;20048;-70
2021/08/07 07:54:42;;;;;;;4.88;1.60;;;;;;;17.01;95.34;98913.91;5048212;28;20056;-70
2021/08/07 07:57:10;;;;;;;6.85;1.58;;;;;;;17.11;90.93;98913.78;5056811;28;20350;-70
2021/08/07 07:59:37;;;;;;;8.15;1.92;;;;;;;17.13;93.66;98917.16;5063795;28;20071;-69
2021/08/07 08:02:07;;;;;;;3.45;1.20;;;;;;;17.12;90.59;98906.53;5063323;28;20709;-73
2021/08/07 08:04:34;;;;;;;5.68;1.50;;;;;;;17.15;90.15;98915.13;5058804;28;20052;-73
2021/08/07 08:07:01;;;;;;;8.57;2.03;;;;;;;17.01;90.80;98907.66;5054462;28;20076;-69
2021/08/07 08:09:28;;;;;;;4.32;1.38;;;;;;;17.06;90.04;98913.44;5052380;28;20037;-70
2021/08/07 08:11:55;;;;;;;6.05;1.48;;;;;;;17.07;92.47;98902.50;5037499;28;20049;-74
2021/08/07 08:14:22;;;;;;;6.55;1.42;;;;;;;16.94;91.09;98884.06;5057264;28;20113;-71
2021/08/07 08:16:49;;;;;;;6.28;1.55;;;;;;;17.11;89.60;98884.13;5038272;28;20358;-74
2021/08/07 08:19:16;;;;;;;8.32;1.65;;;;;;;17.17;90.29;98883.44;5036959;28;20174;-70
2021/08/07 08:21:42;;;;;;;6.65;1.45;;;;;;;17.32;88.91;98882.78;5054502;28;20110;-73
2021/08/07 08:24:09;;;;;;;8.57;1.50;;;;;;;17.47;88.78;98891.88;5033258;28;20049;-70
2021/08/07 08:26:36;;;;;;;8.23;1.60;;;;;;;17.52;89.02;98894.06;5053913;28;20107;-70
2021/08/07 08:29:02;;;;;;;7.45;1.55;;;;;;;17.61;88.15;98889.50;5054282;28;20454;-66
2021/08/07 08:31:29;;;;;;;5.88;1.30;;;;;;;17.76;86.43;98895.88;5053276;28;20103;-67
2021/08/07 08:33:56;;;;;;;5.20;1.48;;;;;;;17.74;86.25;98876.31;5036897;28;20057;-71
2021/08/07 08:36:23;;;;;;;8.20;1.70;;;;;;;17.77;87.58;98886.75;5037064;28;20075;-74
2021/08/07 08:38:50;;;;;;;6.47;1.20;;;;;;;17.91;85.92;98895.16;5053838;28;20353;-77
2021/08/07 08:41:16;;;;;;;4.57;1.23;;;;;;;17.93;84.66;98895.84;5053787;28;20059;-76
2021/08/07 08:43:43;;;;;;;4.95;1.33;;;;;;;17.87;82.98;98883.88;5054084;28;20064;-74
2021/08/07 08:46:10;;;;;;;6.78;1.45;;;;;;;17.90;85.39;98891.63;5053000;28;20098;-74
2021/08/07 08:48:38;;;;;;;7.55;1.88;;;;;;;17.87;85.68;98880.34;5035920;28;20430;-75
2021/08/07 08:51:08;;;;;;;3.70;1.30;;;;;;;17.87;85.68;98877.66;5053855;28;20098;-76
2021/08/07 08:53:39;;;;;;;;;;;;;;;17.94;84.21;98878.63;5053513;28;20045;-73
2021/08/07 08:56:06;;;;;;;8.30;1.20;;;;;;;17.94;84.51;98870.53;5055691;28;19982;-77
2021/08/07 08:58:35;;;;;;;6.13;1.40;;;;;;;18.00;86.12;98869.00;5059909;28;20102;-75
2021/08/07 09:01:06;;;;;;;9.43;1.73;;;;;;;18.14;83.78;98883.66;5062135;28;20045;-76
2021/08/07 09:03:35;;;;;;;9.73;1.48;;;;;;;18.19;83.30;98879.41;5055030;28;20052;-76
2021/08/07 09:06:03;;;;;;;5.28;1.55;;;;;;;18.16;84.68;98868.97;5067948;28;20049;-77
2021/08/07 09:08:30;;;;;;;5.63;1.33;;;;;;;18.24;81.29;98870.78;5072500;28;20048;-71
2021/08/07 09:11:13;;;;;;;5.35;1.55;;;;;;;18.34;80.30;98875.97;5070997;28;20476;-74
2021/08/07 09:13:40;;;;;;;6.32;1.75;;;;;;;18.27;80.04;98856.94;5044345;28;20045;-73
2021/08/07 09:16:09;;;;;;;7.38;1.30;;;;;;;18.35;80.36;98876.84;5053586;28;20393;-74
2021/08/07 09:18:36;;;;;;;10.10;1.30;;;;;;;18.34;80.52;98869.75;5053545;28;20087;-73
2021/08/07 09:21:17;;;;;;;9.88;1.48;;;;;;;18.32;79.91;98846.44;5055231;28;20372;-76
2021/08/07 09:23:46;;;;;;;6.38;1.67;;;;;;;18.40;77.61;98861.75;5051496;28;20571;-73
2021/08/07 09:26:22;;;;;;;7.85;1.63;;;;;;;18.46;78.51;98865.63;5053835;28;20041;-73
2021/08/07 09:28:54;;;;;;;7.03;1.75;;;;;;;18.56;78.09;98863.53;5052085;28;20127;-73
2021/08/07 09:31:23;;;;;;;8.85;1.50;;;;;;;18.63;75.69;98858.25;5057715;28;20191;-70
2021/08/07 09:34:15;;;;;;;5.75;1.50;;;;;;;18.81;77.52;98855.28;5053121;28;20045;-73
2021/08/07 09:36:44;;;;;;;6.00;1.63;;;;;;;18.81;77.27;98835.50;5053979;28;20049;-74
2021/08/07 09:39:15;;;;;;;6.68;1.33;;;;;;;18.92;75.37;98855.88;5053728;28;20053;-72
2021/08/07 09:41:59;;;;;;;6.97;1.65;;;;;;;19.13;74.75;98857.94;5033380;28;20060;-71
2021/08/07 09:44:26;;;;;;;5.50;1.45;;;;;;;18.98;73.36;98852.44;5053981;28;20099;-75
2021/08/07 09:47:07;;;;;;;6.47;1.98;;;;;;;19.03;76.25;98868.16;5053534;28;20354;-75
2021/08/07 09:49:39;;;;;;;9.43;1.42;;;;;;;19.13;73.47;98869.59;5039531;28;20044;-74
2021/08/07 09:52:06;;;;;;;5.28;1.40;;;;;;;19.19;72.03;98869.91;5057862;28;20355;-74
2021/08/07 09:54:44;;;;;;;7.10;1.42;;;;;;;19.38;73.61;98866.69;5034253;28;20052;-74
2021/08/07 09:57:31;;;;;;;5.90;1.60;;;;;;;19.61;71.90;98873.09;5050669;28;20048;-74
2021/08/07 09:59:58;;;;;;;5.95;1.90;;;;;;;19.72;70.07;98856.38;5053853;28;20079;-74
2021/08/07 10:02:31;;;;;;;7.53;1.52;;;;;;;19.78;70.63;98860.22;5033693;28;20049;-74
2021/08/07 10:04:59;;;;;;;6.47;1.50;;;;;;;19.61;69.26;98857.66;5054888;28;20425;-74
2021/08/07 10:07:27;;;;;;;5.88;1.58;;;;;;;19.84;70.01;98864.03;5042600;28;20126;-72
2021/08/07 10:09:57;;;;;;;7.00;1.50;;;;;;;20.04;70.66;98865.19;5058490;28;20056;-73
2021/08/07 10:12:24;;;;;;;8.75;1.63;;;;;;;20.08;69.54;98852.97;5057553;28;20041;-72
2021/08/07 10:14:52;;;;;;;6.10;1.40;;;;;;;19.86;68.82;98854.72;5056419;28;20393;-72
2021/08/07 10:17:24;;;;;;;3.75;1.17;;;;;;;19.92;69.04;98850.41;5056397;28;20507;-72
2021/08/07 10:19:51;;;;;;;4.00;1.23;;;;;;;20.03;68.83;98835.56;5056017;28;20041;-77
2021/08/07 10:22:19;;;;;;;3.85;1.00;;;;;;;20.03;67.98;98835.56;5058104;28;20114;-73
2021/08/07 10:24:47;;;;;;;9.88;1.35;;;;;;;20.10;67.22;98827.56;5040441;28;20044;-72
2021/08/07 10:27:17;;;;;;;5.38;1.48;;;;;;;20.08;68.02;98816.91;5052589;28;20045;-74
2021/08/07 10:29:46;;;;;;;6.72;1.25;;;;;;;20.37;65.98;98825.16;5056338;28;20049;-75
2021/08/07 10:32:14;;;;;;;8.60;1.42;;;;;;;20.67;67.67;98825.91;5064955;28;20049;-75
2021/08/07 10:34:46;;;;;;;6.78;1.42;;;;;;;20.49;66.11;98820.94;5062261;28;20044;-78
2021/08/07 10:37:13;;;;;;;3.80;1.08;;;;;;;20.29;65.40;98813.41;5064244;28;20350;-75
2021/08/07 10:39:40;;;;;;;2.70;1.10;;;;;;;20.11;67.71;98816.53;5058428;28;20102;-72
2021/08/07 10:42:07;;;;;;;4.07;1.23;;;;;;;20.11;66.85;98805.72;5055382;28;20049;-72
2021/08/07 10:44:36;;;;;;;3.33;1.25;;;;;;;20.04;67.71;98810.19;5056665;28;20075;-75
2021/08/07 10:47:03;;;;;;;5.82;1.27;;;;;;;19.90;67.99;98810.00;5057985;28;20107;-75
2021/08/07 10:49:38;;;;;;;6.85;1.20;;;;;;;19.61;67.11;98802.72;5056545;28;20111;-73
2021/08/07 10:52:28;;;;;;;3.40;1.23;;;;;;;19.77;68.61;98802.53;5057775;28;20045;-74
2021/08/07 10:54:57;;;;;;;6.28;1.50;;;;;;;19.66;66.99;98787.59;5058924;28;20430;-76
2021/08/07 10:57:38;;;;;;;3.47;1.02;;;;;;;20.02;65.84;98801.41;5059848;28;20048;-75
2021/08/07 11:00:13;;;;;;;9.15;1.73;;;;;;;20.21;61.96;98798.09;5057520;28;20081;-74
2021/08/07 11:02:39;;;;;;;6.00;1.95;;;;;;;20.46;62.64;98803.19;5064993;28;20049;-67
2021/08/07 11:05:06;;;;;;;6.97;1.63;;;;;;;20.51;64.48;98793.63;5056717;28;20332;-70
2021/08/07 11:07:35;;;;;;;6.38;1.48;;;;;;;20.83;65.70;98791.44;5057209;28;20079;-68
2021/08/07 11:10:09;;;;;;;4.45;1.30;;;;;;;21.17;61.32;98787.16;5054644;28;20055;-68
2021/08/07 11:12:38;;;;;;;4.18;1.00;;;;;;;21.33;59.43;98787.91;5055030;28;20111;-68
2021/08/07 11:15:07;;;;;;;5.43;1.20;;;;;;;21.35;61.14;98777.72;5055418;28;20107;-68
2021/08/07 11:17:38;;;;;;;7.40;1.70;;;;;;;21.60;60.66;98779.94;5055920;28;20386;-68
2021/08/07 11:20:36;;;;;;;6.32;0.85;;;;;;;21.78;58.69;98774.84;5055376;28;20048;-68
2021/08/07 11:23:03;;;;;;;6.53;1.10;;;;;;;22.13;58.03;98781.25;5050422;28;20057;-67
2021/08/07 11:25:46;;;;;;;6.72;1.25;;;;;;;22.19;59.08;98781.31;5056558;28;20057;-67
2021/08/07 11:28:12;;;;;;;3.78;1.15;;;;;;;21.93;59.02;98776.59;5055972;28;20049;-67
2021/08/07 11:30:40;;;;;;;3.63;1.00;;;;;;;21.87;57.61;98771.97;5038830;28;20118;-67
2021/08/07 11:33:09;;;;;;;3.47;1.10;;;;;;;21.64;58.26;98776.66;5056174;28;20080;-67
2021/08/07 11:35:38;;;;;;;2.90;0.90;;;;;;;21.26;58.09;98775.16;5055674;28;20102;-67